sensor_id;sensor_type;location;lat;lon;timestamp;P1;durP1;ratioP1;P2;durP2;ratioP2
20491;SDS011;10404;51.468;6.762;2023-07-09T00:02:20;6.53;;;5.93;;
20491;SDS011;10404;51.468;6.762;2023-07-09T00:04:49;6.88;;;6.32;;
20491;SDS011;10404;51.468;6.762;2023-07-09T00:07:23;6.57;;;5.97;;
20491;SDS011;10404;51.468;6.762;2023-07-09T00:09:53;5.85;;;5.35;;
20491;SDS011;10404;51.468;6.762;2023-07-09T00:12:20;6.70;;;6.15;;
20491;SDS011;10404;51.468;6.762;2023-07-09T00:14:46;6.65;;;6.03;;
20491;SDS011;10404;51.468;6.762;2023-07-09T00:17:16;7.38;;;6.78;;
20491;SDS011;10404;51.468;6.762;2023-07-09T00:19:53;7.00;;;6.43;;
20491;SDS011;10404;51.468;6.762;2023-07-09T00:22:19;6.63;;;6.10;;
20491;SDS011;10404;51.468;6.762;2023-07-09T00:24:46;6.65;;;5.55;;
20491;SDS011;10404;51.468;6.762;2023-07-09T00:27:19;5.65;;;5.13;;
20491;SDS011;10404;51.468;6.762;2023-07-09T00:29:46;6.95;;;6.10;;
20491;SDS011;10404;51.468;6.762;2023-07-09T00:32:16;6.50;;;6.00;;
20491;SDS011;10404;51.468;6.762;2023-07-09T00:34:45;7.05;;;6.45;;
20491;SDS011;10404;51.468;6.762;2023-07-09T00:37:13;7.35;;;6.75;;
20491;SDS011;10404;51.468;6.762;2023-07-09T00:39:44;6.53;;;5.93;;
20491;SDS011;10404;51.468;6.762;2023-07-09T00:42:12;6.47;;;5.88;;
20491;SDS011;10404;51.468;6.762;2023-07-09T00:44:44;6.93;;;6.43;;
20491;SDS011;10404;51.468;6.762;2023-07-09T00:47:21;5.90;;;5.40;;
20491;SDS011;10404;51.468;6.762;2023-07-09T00:49:49;7.38;;;6.65;;
20491;SDS011;10404;51.468;6.762;2023-07-09T00:52:38;6.97;;;6.38;;
20491;SDS011;10404;51.468;6.762;2023-07-09T00:55:10;7.15;;;6.65;;
20491;SDS011;10404;51.468;6.762;2023-07-09T00:57:39;7.18;;;6.50;;
20491;SDS011;10404;51.468;6.762;2023-07-09T01:00:08;5.75;;;5.15;;
20491;SDS011;10404;51.468;6.762;2023-07-09T01:02:38;6.90;;;6.20;;
20491;SDS011;10404;51.468;6.762;2023-07-09T01:05:08;6.43;;;5.82;;
20491;SDS011;10404;51.468;6.762;2023-07-09T01:07:36;6.78;;;6.18;;
20491;SDS011;10404;51.468;6.762;2023-07-09T01:10:02;5.97;;;5.47;;
20491;SDS011;10404;51.468;6.762;2023-07-09T01:12:28;7.35;;;6.75;;
20491;SDS011;10404;51.468;6.762;2023-07-09T01:14:55;6.88;;;6.28;;
20491;SDS011;10404;51.468;6.762;2023-07-09T01:17:24;7.68;;;6.97;;
20491;SDS011;10404;51.468;6.762;2023-07-09T01:19:52;6.88;;;6.28;;
20491;SDS011;10404;51.468;6.762;2023-07-09T01:22:18;7.07;;;5.88;;
20491;SDS011;10404;51.468;6.762;2023-07-09T01:25:06;6.15;;;5.55;;
20491;SDS011;10404;51.468;6.762;2023-07-09T01:27:39;6.40;;;5.63;;
20491;SDS011;10404;51.468;6.762;2023-07-09T01:32:34;6.45;;;5.85;;
20491;SDS011;10404;51.468;6.762;2023-07-09T01:35:02;5.55;;;5.07;;
20491;SDS011;10404;51.468;6.762;2023-07-09T01:37:32;6.45;;;5.85;;
20491;SDS011;10404;51.468;6.762;2023-07-09T01:40:00;5.93;;;5.32;;
20491;SDS011;10404;51.468;6.762;2023-07-09T01:42:26;6.55;;;5.95;;
20491;SDS011;10404;51.468;6.762;2023-07-09T01:44:53;6.95;;;6.25;;
20491;SDS011;10404;51.468;6.762;2023-07-09T01:47:20;7.13;;;6.63;;
20491;SDS011;10404;51.468;6.762;2023-07-09T01:49:48;6.20;;;5.63;;
20491;SDS011;10404;51.468;6.762;2023-07-09T01:52:15;6.38;;;5.88;;
20491;SDS011;10404;51.468;6.762;2023-07-09T01:54:44;7.22;;;6.63;;
20491;SDS011;10404;51.468;6.762;2023-07-09T01:59:47;6.10;;;5.50;;
20491;SDS011;10404;51.468;6.762;2023-07-09T02:02:18;7.35;;;6.72;;
20491;SDS011;10404;51.468;6.762;2023-07-09T02:04:45;6.35;;;5.47;;
20491;SDS011;10404;51.468;6.762;2023-07-09T02:07:15;6.53;;;5.93;;
20491;SDS011;10404;51.468;6.762;2023-07-09T02:09:41;6.78;;;6.18;;
20491;SDS011;10404;51.468;6.762;2023-07-09T02:12:07;6.38;;;5.45;;
20491;SDS011;10404;51.468;6.762;2023-07-09T02:14:34;6.35;;;5.72;;
20491;SDS011;10404;51.468;6.762;2023-07-09T02:17:00;6.80;;;6.10;;
20491;SDS011;10404;51.468;6.762;2023-07-09T02:19:25;6.85;;;6.22;;
20491;SDS011;10404;51.468;6.762;2023-07-09T02:21:52;7.20;;;6.53;;
20491;SDS011;10404;51.468;6.762;2023-07-09T02:24:18;6.70;;;6.10;;
20491;SDS011;10404;51.468;6.762;2023-07-09T02:26:44;6.38;;;5.72;;
20491;SDS011;10404;51.468;6.762;2023-07-09T02:29:10;7.30;;;6.60;;
20491;SDS011;10404;51.468;6.762;2023-07-09T02:31:35;6.25;;;5.65;;
20491;SDS011;10404;51.468;6.762;2023-07-09T02:34:01;6.35;;;5.75;;
20491;SDS011;10404;51.468;6.762;2023-07-09T02:36:28;8.00;;;7.30;;
20491;SDS011;10404;51.468;6.762;2023-07-09T02:38:53;6.63;;;6.03;;
20491;SDS011;10404;51.468;6.762;2023-07-09T02:41:19;7.03;;;6.43;;
20491;SDS011;10404;51.468;6.762;2023-07-09T02:43:44;6.85;;;6.25;;
20491;SDS011;10404;51.468;6.762;2023-07-09T02:46:10;7.07;;;6.47;;
20491;SDS011;10404;51.468;6.762;2023-07-09T02:48:36;6.13;;;5.50;;
20491;SDS011;10404;51.468;6.762;2023-07-09T02:51:01;6.95;;;6.35;;
20491;SDS011;10404;51.468;6.762;2023-07-09T02:53:27;6.53;;;5.93;;
20491;SDS011;10404;51.468;6.762;2023-07-09T02:55:53;6.53;;;5.97;;
20491;SDS011;10404;51.468;6.762;2023-07-09T02:58:18;7.63;;;6.93;;
20491;SDS011;10404;51.468;6.762;2023-07-09T03:00:44;6.07;;;5.57;;
20491;SDS011;10404;51.468;6.762;2023-07-09T03:03:18;7.25;;;6.65;;
20491;SDS011;10404;51.468;6.762;2023-07-09T03:05:47;7.55;;;6.75;;
20491;SDS011;10404;51.468;6.762;2023-07-09T03:08:13;6.53;;;6.03;;
20491;SDS011;10404;51.468;6.762;2023-07-09T03:10:40;6.57;;;5.68;;
20491;SDS011;10404;51.468;6.762;2023-07-09T03:13:05;7.15;;;6.45;;
20491;SDS011;10404;51.468;6.762;2023-07-09T03:15:31;6.72;;;6.13;;
20491;SDS011;10404;51.468;6.762;2023-07-09T03:17:57;6.57;;;5.97;;
20491;SDS011;10404;51.468;6.762;2023-07-09T03:20:23;6.82;;;6.15;;
20491;SDS011;10404;51.468;6.762;2023-07-09T03:22:50;6.68;;;6.07;;
20491;SDS011;10404;51.468;6.762;2023-07-09T03:25:15;6.10;;;5.50;;
20491;SDS011;10404;51.468;6.762;2023-07-09T03:27:41;7.03;;;6.32;;
20491;SDS011;10404;51.468;6.762;2023-07-09T03:30:07;6.38;;;5.57;;
20491;SDS011;10404;51.468;6.762;2023-07-09T03:32:33;6.72;;;6.07;;
20491;SDS011;10404;51.468;6.762;2023-07-09T03:34:58;6.82;;;5.80;;
20491;SDS011;10404;51.468;6.762;2023-07-09T03:37:24;7.57;;;6.88;;
20491;SDS011;10404;51.468;6.762;2023-07-09T03:39:49;6.40;;;5.80;;
20491;SDS011;10404;51.468;6.762;2023-07-09T03:42:15;7.75;;;7.15;;
20491;SDS011;10404;51.468;6.762;2023-07-09T03:44:41;7.38;;;6.78;;
20491;SDS011;10404;51.468;6.762;2023-07-09T03:47:07;6.75;;;5.63;;
20491;SDS011;10404;51.468;6.762;2023-07-09T03:49:33;6.63;;;5.90;;
20491;SDS011;10404;51.468;6.762;2023-07-09T03:51:58;7.07;;;6.47;;
20491;SDS011;10404;51.468;6.762;2023-07-09T03:54:24;7.57;;;6.88;;
20491;SDS011;10404;51.468;6.762;2023-07-09T03:56:50;7.70;;;6.53;;
20491;SDS011;10404;51.468;6.762;2023-07-09T03:59:15;7.75;;;7.05;;
20491;SDS011;10404;51.468;6.762;2023-07-09T04:01:41;7.03;;;6.32;;
20491;SDS011;10404;51.468;6.762;2023-07-09T04:04:11;7.93;;;7.15;;
20491;SDS011;10404;51.468;6.762;2023-07-09T04:09:04;7.53;;;6.32;;
20491;SDS011;10404;51.468;6.762;2023-07-09T04:11:30;7.50;;;6.80;;
20491;SDS011;10404;51.468;6.762;2023-07-09T04:13:56;7.65;;;6.95;;
20491;SDS011;10404;51.468;6.762;2023-07-09T04:16:22;8.13;;;7.35;;
20491;SDS011;10404;51.468;6.762;2023-07-09T04:18:47;7.18;;;6.57;;
20491;SDS011;10404;51.468;6.762;2023-07-09T04:21:13;8.10;;;7.20;;
20491;SDS011;10404;51.468;6.762;2023-07-09T04:23:39;7.32;;;6.63;;
20491;SDS011;10404;51.468;6.762;2023-07-09T04:26:04;7.55;;;6.85;;
20491;SDS011;10404;51.468;6.762;2023-07-09T04:28:34;7.47;;;6.78;;
20491;SDS011;10404;51.468;6.762;2023-07-09T04:30:59;7.55;;;6.78;;
20491;SDS011;10404;51.468;6.762;2023-07-09T04:33:25;7.30;;;6.60;;
20491;SDS011;10404;51.468;6.762;2023-07-09T04:35:51;7.13;;;6.30;;
20491;SDS011;10404;51.468;6.762;2023-07-09T04:38:16;7.32;;;6.72;;
20491;SDS011;10404;51.468;6.762;2023-07-09T04:40:42;7.50;;;6.55;;
20491;SDS011;10404;51.468;6.762;2023-07-09T04:43:08;7.30;;;6.65;;
20491;SDS011;10404;51.468;6.762;2023-07-09T04:45:34;8.00;;;7.30;;
20491;SDS011;10404;51.468;6.762;2023-07-09T04:47:59;7.15;;;6.45;;
20491;SDS011;10404;51.468;6.762;2023-07-09T04:50:25;7.80;;;7.10;;
20491;SDS011;10404;51.468;6.762;2023-07-09T04:52:51;8.32;;;7.57;;
20491;SDS011;10404;51.468;6.762;2023-07-09T04:55:17;7.82;;;7.03;;
20491;SDS011;10404;51.468;6.762;2023-07-09T04:57:44;7.78;;;7.07;;
20491;SDS011;10404;51.468;6.762;2023-07-09T05:00:10;7.35;;;6.65;;
20491;SDS011;10404;51.468;6.762;2023-07-09T05:02:36;6.97;;;5.88;;
20491;SDS011;10404;51.468;6.762;2023-07-09T05:05:02;7.03;;;6.32;;
20491;SDS011;10404;51.468;6.762;2023-07-09T05:07:28;6.95;;;6.35;;
20491;SDS011;10404;51.468;6.762;2023-07-09T05:09:53;7.63;;;7.03;;
20491;SDS011;10404;51.468;6.762;2023-07-09T05:12:19;7.10;;;6.40;;
20491;SDS011;10404;51.468;6.762;2023-07-09T05:14:46;8.38;;;6.82;;
20491;SDS011;10404;51.468;6.762;2023-07-09T05:17:11;7.43;;;6.70;;
20491;SDS011;10404;51.468;6.762;2023-07-09T05:19:38;7.80;;;7.10;;
20491;SDS011;10404;51.468;6.762;2023-07-09T05:22:04;7.72;;;7.00;;
20491;SDS011;10404;51.468;6.762;2023-07-09T05:24:30;7.88;;;7.18;;
20491;SDS011;10404;51.468;6.762;2023-07-09T05:26:55;7.00;;;6.30;;
20491;SDS011;10404;51.468;6.762;2023-07-09T05:29:21;7.63;;;6.78;;
20491;SDS011;10404;51.468;6.762;2023-07-09T05:31:47;7.32;;;6.30;;
20491;SDS011;10404;51.468;6.762;2023-07-09T05:34:13;6.93;;;6.00;;
20491;SDS011;10404;51.468;6.762;2023-07-09T05:36:38;6.90;;;6.32;;
20491;SDS011;10404;51.468;6.762;2023-07-09T05:39:04;7.20;;;6.47;;
20491;SDS011;10404;51.468;6.762;2023-07-09T05:41:30;6.75;;;6.15;;
20491;SDS011;10404;51.468;6.762;2023-07-09T05:43:55;6.53;;;5.93;;
20491;SDS011;10404;51.468;6.762;2023-07-09T05:46:22;6.50;;;5.82;;
20491;SDS011;10404;51.468;6.762;2023-07-09T05:48:48;6.70;;;5.40;;
20491;SDS011;10404;51.468;6.762;2023-07-09T05:51:13;6.18;;;5.57;;
20491;SDS011;10404;51.468;6.762;2023-07-09T05:53:39;7.00;;;6.40;;
20491;SDS011;10404;51.468;6.762;2023-07-09T05:56:05;6.32;;;5.50;;
20491;SDS011;10404;51.468;6.762;2023-07-09T05:58:31;6.07;;;5.47;;
20491;SDS011;10404;51.468;6.762;2023-07-09T06:00:57;6.97;;;5.75;;
20491;SDS011;10404;51.468;6.762;2023-07-09T06:03:24;7.47;;;6.15;;
20491;SDS011;10404;51.468;6.762;2023-07-09T06:05:52;8.07;;;6.65;;
20491;SDS011;10404;51.468;6.762;2023-07-09T06:08:18;7.05;;;6.15;;
20491;SDS011;10404;51.468;6.762;2023-07-09T06:10:52;5.95;;;5.22;;
20491;SDS011;10404;51.468;6.762;2023-07-09T06:13:22;6.82;;;6.22;;
20491;SDS011;10404;51.468;6.762;2023-07-09T06:15:48;6.80;;;6.10;;
20491;SDS011;10404;51.468;6.762;2023-07-09T06:18:15;6.72;;;6.03;;
20491;SDS011;10404;51.468;6.762;2023-07-09T06:20:40;6.60;;;5.93;;
20491;SDS011;10404;51.468;6.762;2023-07-09T06:23:06;7.70;;;7.00;;
20491;SDS011;10404;51.468;6.762;2023-07-09T06:25:32;7.13;;;6.32;;
20491;SDS011;10404;51.468;6.762;2023-07-09T06:27:58;6.85;;;6.18;;
20491;SDS011;10404;51.468;6.762;2023-07-09T06:30:24;6.72;;;5.80;;
20491;SDS011;10404;51.468;6.762;2023-07-09T06:32:49;7.40;;;6.70;;
20491;SDS011;10404;51.468;6.762;2023-07-09T06:35:15;7.75;;;6.95;;
20491;SDS011;10404;51.468;6.762;2023-07-09T06:37:40;6.22;;;5.63;;
20491;SDS011;10404;51.468;6.762;2023-07-09T06:40:06;6.82;;;5.50;;
20491;SDS011;10404;51.468;6.762;2023-07-09T06:42:34;6.32;;;5.63;;
20491;SDS011;10404;51.468;6.762;2023-07-09T06:45:01;7.85;;;6.47;;
20491;SDS011;10404;51.468;6.762;2023-07-09T06:47:28;8.15;;;7.45;;
20491;SDS011;10404;51.468;6.762;2023-07-09T06:49:54;7.82;;;7.13;;
20491;SDS011;10404;51.468;6.762;2023-07-09T06:52:19;7.03;;;6.43;;
20491;SDS011;10404;51.468;6.762;2023-07-09T06:54:45;7.60;;;6.80;;
20491;SDS011;10404;51.468;6.762;2023-07-09T06:57:11;7.68;;;7.00;;
20491;SDS011;10404;51.468;6.762;2023-07-09T06:59:36;7.78;;;6.93;;
20491;SDS011;10404;51.468;6.762;2023-07-09T07:02:03;7.32;;;6.78;;
20491;SDS011;10404;51.468;6.762;2023-07-09T07:04:28;7.38;;;6.78;;
20491;SDS011;10404;51.468;6.762;2023-07-09T07:06:54;7.55;;;6.40;;
20491;SDS011;10404;51.468;6.762;2023-07-09T07:09:22;7.28;;;6.63;;
20491;SDS011;10404;51.468;6.762;2023-07-09T07:11:48;7.13;;;6.43;;
20491;SDS011;10404;51.468;6.762;2023-07-09T07:14:14;6.75;;;6.15;;
20491;SDS011;10404;51.468;6.762;2023-07-09T07:16:39;6.72;;;6.22;;
20491;SDS011;10404;51.468;6.762;2023-07-09T07:19:06;6.38;;;5.78;;
20491;SDS011;10404;51.468;6.762;2023-07-09T07:21:31;8.13;;;7.32;;
20491;SDS011;10404;51.468;6.762;2023-07-09T07:23:57;7.22;;;6.53;;
20491;SDS011;10404;51.468;6.762;2023-07-09T07:26:23;8.55;;;7.72;;
20491;SDS011;10404;51.468;6.762;2023-07-09T07:28:48;6.88;;;6.18;;
20491;SDS011;10404;51.468;6.762;2023-07-09T07:31:15;7.40;;;6.70;;
20491;SDS011;10404;51.468;6.762;2023-07-09T07:33:42;8.48;;;7.70;;
20491;SDS011;10404;51.468;6.762;2023-07-09T07:36:08;7.25;;;6.55;;
20491;SDS011;10404;51.468;6.762;2023-07-09T07:38:34;7.78;;;7.03;;
20491;SDS011;10404;51.468;6.762;2023-07-09T07:41:00;7.53;;;6.82;;
20491;SDS011;10404;51.468;6.762;2023-07-09T07:43:26;7.45;;;6.75;;
20491;SDS011;10404;51.468;6.762;2023-07-09T07:45:52;7.75;;;7.05;;
20491;SDS011;10404;51.468;6.762;2023-07-09T07:48:18;8.48;;;7.50;;
20491;SDS011;10404;51.468;6.762;2023-07-09T07:50:44;6.88;;;6.07;;
20491;SDS011;10404;51.468;6.762;2023-07-09T07:53:13;7.57;;;6.85;;
20491;SDS011;10404;51.468;6.762;2023-07-09T07:55:40;8.25;;;7.55;;
20491;SDS011;10404;51.468;6.762;2023-07-09T07:58:07;7.47;;;6.82;;
20491;SDS011;10404;51.468;6.762;2023-07-09T08:00:37;6.63;;;6.03;;
20491;SDS011;10404;51.468;6.762;2023-07-09T08:03:03;6.88;;;6.32;;
20491;SDS011;10404;51.468;6.762;2023-07-09T08:05:29;8.38;;;7.60;;
20491;SDS011;10404;51.468;6.762;2023-07-09T08:07:55;7.78;;;6.60;;
20491;SDS011;10404;51.468;6.762;2023-07-09T08:10:21;7.07;;;6.50;;
20491;SDS011;10404;51.468;6.762;2023-07-09T08:12:46;6.82;;;6.22;;
20491;SDS011;10404;51.468;6.762;2023-07-09T08:15:13;6.93;;;6.32;;
20491;SDS011;10404;51.468;6.762;2023-07-09T08:17:39;7.35;;;6.75;;
20491;SDS011;10404;51.468;6.762;2023-07-09T08:20:04;7.43;;;6.75;;
20491;SDS011;10404;51.468;6.762;2023-07-09T08:22:30;8.07;;;7.47;;
20491;SDS011;10404;51.468;6.762;2023-07-09T08:24:56;7.57;;;6.88;;
20491;SDS011;10404;51.468;6.762;2023-07-09T08:27:22;8.07;;;7.38;;
20491;SDS011;10404;51.468;6.762;2023-07-09T08:29:47;6.82;;;6.22;;
20491;SDS011;10404;51.468;6.762;2023-07-09T08:32:13;8.00;;;7.28;;
20491;SDS011;10404;51.468;6.762;2023-07-09T08:34:40;7.22;;;6.72;;
20491;SDS011;10404;51.468;6.762;2023-07-09T08:37:07;7.90;;;7.20;;
20491;SDS011;10404;51.468;6.762;2023-07-09T08:39:33;7.70;;;7.00;;
20491;SDS011;10404;51.468;6.762;2023-07-09T08:42:02;7.78;;;7.07;;
20491;SDS011;10404;51.468;6.762;2023-07-09T08:50:17;7.50;;;6.90;;
20491;SDS011;10404;51.468;6.762;2023-07-09T08:52:47;8.52;;;7.80;;
20491;SDS011;10404;51.468;6.762;2023-07-09T08:55:15;7.35;;;6.70;;
20491;SDS011;10404;51.468;6.762;2023-07-09T08:57:54;7.30;;;6.25;;
20491;SDS011;10404;51.468;6.762;2023-07-09T09:03:01;7.43;;;6.80;;
20491;SDS011;10404;51.468;6.762;2023-07-09T09:05:33;7.72;;;7.03;;
20491;SDS011;10404;51.468;6.762;2023-07-09T09:08:11;7.68;;;7.05;;
20491;SDS011;10404;51.468;6.762;2023-07-09T09:10:44;6.43;;;5.78;;
20491;SDS011;10404;51.468;6.762;2023-07-09T09:13:16;7.70;;;7.03;;
20491;SDS011;10404;51.468;6.762;2023-07-09T09:15:48;7.10;;;6.43;;
20491;SDS011;10404;51.468;6.762;2023-07-09T09:18:22;7.35;;;6.65;;
20491;SDS011;10404;51.468;6.762;2023-07-09T09:21:00;7.03;;;6.38;;
20491;SDS011;10404;51.468;6.762;2023-07-09T09:23:39;7.15;;;6.50;;
20491;SDS011;10404;51.468;6.762;2023-07-09T09:26:18;7.22;;;6.63;;
20491;SDS011;10404;51.468;6.762;2023-07-09T09:28:49;7.57;;;6.88;;
20491;SDS011;10404;51.468;6.762;2023-07-09T09:31:14;8.05;;;7.35;;
20491;SDS011;10404;51.468;6.762;2023-07-09T09:33:43;7.55;;;6.90;;
20491;SDS011;10404;51.468;6.762;2023-07-09T09:36:14;7.68;;;7.03;;
20491;SDS011;10404;51.468;6.762;2023-07-09T09:38:42;6.97;;;6.28;;
20491;SDS011;10404;51.468;6.762;2023-07-09T09:41:15;7.05;;;6.45;;
20491;SDS011;10404;51.468;6.762;2023-07-09T09:43:46;7.47;;;6.88;;
20491;SDS011;10404;51.468;6.762;2023-07-09T09:46:16;7.47;;;6.85;;
20491;SDS011;10404;51.468;6.762;2023-07-09T09:48:44;6.93;;;6.38;;
20491;SDS011;10404;51.468;6.762;2023-07-09T09:51:11;7.57;;;6.97;;
20491;SDS011;10404;51.468;6.762;2023-07-09T09:53:39;7.43;;;6.72;;
20491;SDS011;10404;51.468;6.762;2023-07-09T09:56:15;6.65;;;6.05;;
20491;SDS011;10404;51.468;6.762;2023-07-09T09:58:55;7.05;;;6.40;;
20491;SDS011;10404;51.468;6.762;2023-07-09T10:01:29;7.50;;;6.72;;
20491;SDS011;10404;51.468;6.762;2023-07-09T10:03:57;8.20;;;6.53;;
20491;SDS011;10404;51.468;6.762;2023-07-09T10:14:03;7.65;;;7.05;;
20491;SDS011;10404;51.468;6.762;2023-07-09T10:16:45;6.93;;;6.25;;
20491;SDS011;10404;51.468;6.762;2023-07-09T10:19:25;7.70;;;7.10;;
20491;SDS011;10404;51.468;6.762;2023-07-09T10:22:00;7.15;;;6.50;;
20491;SDS011;10404;51.468;6.762;2023-07-09T10:27:10;6.65;;;5.90;;
20491;SDS011;10404;51.468;6.762;2023-07-09T10:29:48;7.25;;;6.65;;
20491;SDS011;10404;51.468;6.762;2023-07-09T10:40:46;9.10;;;8.38;;
20491;SDS011;10404;51.468;6.762;2023-07-09T10:43:19;7.88;;;7.18;;
20491;SDS011;10404;51.468;6.762;2023-07-09T10:46:12;7.60;;;6.95;;
20491;SDS011;10404;51.468;6.762;2023-07-09T10:48:45;6.65;;;6.05;;
20491;SDS011;10404;51.468;6.762;2023-07-09T10:51:16;7.50;;;6.90;;
20491;SDS011;10404;51.468;6.762;2023-07-09T11:01:31;7.63;;;7.03;;
20491;SDS011;10404;51.468;6.762;2023-07-09T11:04:03;6.85;;;6.35;;
20491;SDS011;10404;51.468;6.762;2023-07-09T11:06:44;7.88;;;7.28;;
20491;SDS011;10404;51.468;6.762;2023-07-09T11:09:16;6.20;;;5.78;;
20491;SDS011;10404;51.468;6.762;2023-07-09T11:11:49;8.05;;;7.45;;
20491;SDS011;10404;51.468;6.762;2023-07-09T11:17:00;7.15;;;6.65;;
20491;SDS011;10404;51.468;6.762;2023-07-09T11:19:26;6.70;;;6.20;;
20491;SDS011;10404;51.468;6.762;2023-07-09T11:22:03;7.28;;;6.68;;
20491;SDS011;10404;51.468;6.762;2023-07-09T11:24:47;7.97;;;7.38;;
20491;SDS011;10404;51.468;6.762;2023-07-09T11:27:24;7.45;;;7.03;;
20491;SDS011;10404;51.468;6.762;2023-07-09T11:32:24;7.45;;;6.82;;
20491;SDS011;10404;51.468;6.762;2023-07-09T11:34:51;7.70;;;7.00;;
20491;SDS011;10404;51.468;6.762;2023-07-09T11:37:16;7.38;;;6.70;;
20491;SDS011;10404;51.468;6.762;2023-07-09T11:39:44;8.20;;;7.50;;
20491;SDS011;10404;51.468;6.762;2023-07-09T11:44:58;7.82;;;7.32;;
20491;SDS011;10404;51.468;6.762;2023-07-09T11:47:32;8.35;;;7.72;;
20491;SDS011;10404;51.468;6.762;2023-07-09T11:50:05;8.05;;;7.43;;
20491;SDS011;10404;51.468;6.762;2023-07-09T11:52:41;9.05;;;8.48;;
20491;SDS011;10404;51.468;6.762;2023-07-09T11:58:12;8.25;;;7.65;;
20491;SDS011;10404;51.468;6.762;2023-07-09T12:03:21;8.50;;;7.90;;
20491;SDS011;10404;51.468;6.762;2023-07-09T12:05:51;7.65;;;7.13;;
20491;SDS011;10404;51.468;6.762;2023-07-09T12:08:23;10.13;;;9.48;;
20491;SDS011;10404;51.468;6.762;2023-07-09T12:11:04;7.18;;;6.57;;
20491;SDS011;10404;51.468;6.762;2023-07-09T12:13:37;7.70;;;7.20;;
20491;SDS011;10404;51.468;6.762;2023-07-09T12:16:03;7.20;;;6.47;;
20491;SDS011;10404;51.468;6.762;2023-07-09T12:18:29;7.65;;;7.05;;
20491;SDS011;10404;51.468;6.762;2023-07-09T12:20:55;7.78;;;7.05;;
20491;SDS011;10404;51.468;6.762;2023-07-09T12:25:54;8.48;;;7.88;;
20491;SDS011;10404;51.468;6.762;2023-07-09T12:28:21;7.70;;;7.20;;
20491;SDS011;10404;51.468;6.762;2023-07-09T12:30:48;9.02;;;8.32;;
20491;SDS011;10404;51.468;6.762;2023-07-09T12:33:16;8.63;;;8.02;;
20491;SDS011;10404;51.468;6.762;2023-07-09T12:35:42;8.18;;;7.47;;
20491;SDS011;10404;51.468;6.762;2023-07-09T12:38:15;8.15;;;6.97;;
20491;SDS011;10404;51.468;6.762;2023-07-09T12:40:42;7.63;;;7.03;;
20491;SDS011;10404;51.468;6.762;2023-07-09T12:43:09;7.50;;;6.80;;
20491;SDS011;10404;51.468;6.762;2023-07-09T12:45:36;7.20;;;6.70;;
20491;SDS011;10404;51.468;6.762;2023-07-09T12:48:02;7.43;;;6.90;;
20491;SDS011;10404;51.468;6.762;2023-07-09T12:50:32;8.23;;;7.53;;
20491;SDS011;10404;51.468;6.762;2023-07-09T12:53:01;10.70;;;9.63;;
20491;SDS011;10404;51.468;6.762;2023-07-09T12:55:38;8.07;;;7.43;;
20491;SDS011;10404;51.468;6.762;2023-07-09T12:58:10;9.18;;;8.48;;
20491;SDS011;10404;51.468;6.762;2023-07-09T13:00:47;9.43;;;8.63;;
20491;SDS011;10404;51.468;6.762;2023-07-09T13:03:21;9.70;;;9.00;;
20491;SDS011;10404;51.468;6.762;2023-07-09T13:05:54;8.48;;;7.78;;
20491;SDS011;10404;51.468;6.762;2023-07-09T13:08:31;8.73;;;7.93;;
20491;SDS011;10404;51.468;6.762;2023-07-09T13:11:13;7.95;;;7.35;;
20491;SDS011;10404;51.468;6.762;2023-07-09T13:13:53;8.82;;;8.23;;
20491;SDS011;10404;51.468;6.762;2023-07-09T13:16:24;9.80;;;9.07;;
20491;SDS011;10404;51.468;6.762;2023-07-09T13:18:50;8.88;;;8.00;;
20491;SDS011;10404;51.468;6.762;2023-07-09T13:21:17;9.45;;;8.75;;
20491;SDS011;10404;51.468;6.762;2023-07-09T13:23:44;9.85;;;9.15;;
20491;SDS011;10404;51.468;6.762;2023-07-09T13:26:09;10.38;;;9.55;;
20491;SDS011;10404;51.468;6.762;2023-07-09T13:28:35;9.20;;;8.48;;
20491;SDS011;10404;51.468;6.762;2023-07-09T13:31:07;9.95;;;9.18;;
20491;SDS011;10404;51.468;6.762;2023-07-09T13:33:37;9.32;;;8.52;;
20491;SDS011;10404;51.468;6.762;2023-07-09T13:36:03;9.13;;;8.32;;
20491;SDS011;10404;51.468;6.762;2023-07-09T13:38:29;11.18;;;10.48;;
20491;SDS011;10404;51.468;6.762;2023-07-09T13:40:56;9.38;;;8.73;;
20491;SDS011;10404;51.468;6.762;2023-07-09T13:43:33;10.40;;;9.60;;
20491;SDS011;10404;51.468;6.762;2023-07-09T13:46:01;9.25;;;8.55;;
20491;SDS011;10404;51.468;6.762;2023-07-09T13:48:31;9.45;;;8.85;;
20491;SDS011;10404;51.468;6.762;2023-07-09T13:50:57;9.80;;;9.00;;
20491;SDS011;10404;51.468;6.762;2023-07-09T13:53:24;9.18;;;8.57;;
20491;SDS011;10404;51.468;6.762;2023-07-09T13:55:53;9.50;;;8.57;;
20491;SDS011;10404;51.468;6.762;2023-07-09T13:58:21;8.70;;;8.10;;
20491;SDS011;10404;51.468;6.762;2023-07-09T14:00:49;8.45;;;7.85;;
20491;SDS011;10404;51.468;6.762;2023-07-09T14:03:23;9.55;;;8.75;;
20491;SDS011;10404;51.468;6.762;2023-07-09T14:05:53;8.63;;;7.95;;
20491;SDS011;10404;51.468;6.762;2023-07-09T14:08:19;9.35;;;8.45;;
20491;SDS011;10404;51.468;6.762;2023-07-09T14:10:46;9.43;;;8.65;;
20491;SDS011;10404;51.468;6.762;2023-07-09T14:13:13;9.90;;;9.23;;
20491;SDS011;10404;51.468;6.762;2023-07-09T14:15:41;7.63;;;6.97;;
20491;SDS011;10404;51.468;6.762;2023-07-09T14:18:14;9.02;;;8.30;;
20491;SDS011;10404;51.468;6.762;2023-07-09T14:20:42;10.00;;;9.30;;
20491;SDS011;10404;51.468;6.762;2023-07-09T14:23:10;9.10;;;8.35;;
20491;SDS011;10404;51.468;6.762;2023-07-09T14:25:40;10.35;;;9.55;;
20491;SDS011;10404;51.468;6.762;2023-07-09T14:28:08;10.60;;;9.75;;
20491;SDS011;10404;51.468;6.762;2023-07-09T14:30:40;9.48;;;8.68;;
20491;SDS011;10404;51.468;6.762;2023-07-09T14:33:12;8.65;;;7.85;;
20491;SDS011;10404;51.468;6.762;2023-07-09T14:35:45;9.25;;;8.55;;
20491;SDS011;10404;51.468;6.762;2023-07-09T14:38:15;9.18;;;8.48;;
20491;SDS011;10404;51.468;6.762;2023-07-09T14:40:45;9.88;;;9.02;;
20491;SDS011;10404;51.468;6.762;2023-07-09T14:43:11;11.77;;;10.93;;
20491;SDS011;10404;51.468;6.762;2023-07-09T14:45:37;9.82;;;8.90;;
20491;SDS011;10404;51.468;6.762;2023-07-09T14:48:13;9.48;;;8.77;;
20491;SDS011;10404;51.468;6.762;2023-07-09T14:50:40;9.32;;;8.52;;
20491;SDS011;10404;51.468;6.762;2023-07-09T14:53:14;9.15;;;8.35;;
20491;SDS011;10404;51.468;6.762;2023-07-09T14:55:44;9.52;;;8.63;;
20491;SDS011;10404;51.468;6.762;2023-07-09T14:58:14;8.07;;;7.38;;
20491;SDS011;10404;51.468;6.762;2023-07-09T15:00:41;10.38;;;9.43;;
20491;SDS011;10404;51.468;6.762;2023-07-09T15:03:09;10.23;;;9.38;;
20491;SDS011;10404;51.468;6.762;2023-07-09T15:05:35;9.30;;;8.48;;
20491;SDS011;10404;51.468;6.762;2023-07-09T15:08:06;8.02;;;7.32;;
20491;SDS011;10404;51.468;6.762;2023-07-09T15:10:39;8.95;;;8.13;;
20491;SDS011;10404;51.468;6.762;2023-07-09T15:13:07;8.05;;;7.38;;
20491;SDS011;10404;51.468;6.762;2023-07-09T15:15:45;8.80;;;7.95;;
20491;SDS011;10404;51.468;6.762;2023-07-09T15:18:12;8.93;;;8.23;;
20491;SDS011;10404;51.468;6.762;2023-07-09T15:20:40;8.18;;;7.43;;
20491;SDS011;10404;51.468;6.762;2023-07-09T15:23:09;8.60;;;8.00;;
20491;SDS011;10404;51.468;6.762;2023-07-09T15:25:36;8.57;;;7.97;;
20491;SDS011;10404;51.468;6.762;2023-07-09T15:28:01;8.50;;;7.82;;
20491;SDS011;10404;51.468;6.762;2023-07-09T15:30:28;8.25;;;7.55;;
20491;SDS011;10404;51.468;6.762;2023-07-09T15:32:58;9.45;;;8.55;;
20491;SDS011;10404;51.468;6.762;2023-07-09T15:35:26;9.18;;;8.43;;
20491;SDS011;10404;51.468;6.762;2023-07-09T15:37:56;8.70;;;7.97;;
20491;SDS011;10404;51.468;6.762;2023-07-09T15:40:26;11.25;;;10.52;;
20491;SDS011;10404;51.468;6.762;2023-07-09T15:42:57;15.85;;;10.50;;
20491;SDS011;10404;51.468;6.762;2023-07-09T15:45:29;10.65;;;9.65;;
20491;SDS011;10404;51.468;6.762;2023-07-09T15:47:54;10.98;;;10.07;;
20491;SDS011;10404;51.468;6.762;2023-07-09T15:50:25;10.23;;;9.23;;
20491;SDS011;10404;51.468;6.762;2023-07-09T15:52:52;10.23;;;9.30;;
20491;SDS011;10404;51.468;6.762;2023-07-09T15:55:23;11.35;;;9.18;;